createdAt,value
2022-10-07T04:03:42.297Z,100861.19
2022-10-07T04:07:46.053Z,100855.94
2022-10-07T04:11:50.414Z,100849.47
2022-10-07T04:15:54.470Z,100848.03
2022-10-07T04:19:59.447Z,100842.97
2022-10-07T04:24:03.338Z,100848.03
2022-10-07T04:28:07.923Z,100845.25
2022-10-07T04:32:11.421Z,100848.22
2022-10-07T04:36:16.099Z,100855.13
2022-10-07T04:40:31.808Z,100844.66
2022-10-07T04:44:34.626Z,100835.88
2022-10-07T04:48:45.551Z,100844.03
2022-10-07T04:52:52.113Z,100835.41
2022-10-07T04:56:54.748Z,100831.03
2022-10-07T05:01:01.788Z,100831.00
2022-10-07T05:05:05.398Z,100832.06
2022-10-07T05:09:09.506Z,100814.06
2022-10-07T05:13:17.823Z,100812.81
2022-10-07T05:17:22.145Z,100816.78
2022-10-07T05:21:26.661Z,100810.31
2022-10-07T05:25:30.751Z,100812.41
2022-10-07T05:29:33.936Z,100811.59
2022-10-07T05:33:39.503Z,100807.38
2022-10-07T05:37:44.583Z,100809.47
2022-10-07T05:41:51.750Z,100797.13
2022-10-07T05:46:01.641Z,100798.59
2022-10-07T05:50:06.739Z,100798.16
2022-10-07T05:54:09.860Z,100796.91
2022-10-07T05:58:18.379Z,100795.63
2022-10-07T06:02:21.613Z,100798.75
2022-10-07T06:06:25.565Z,100793.19
2022-10-07T06:10:51.516Z,100789.38
2022-10-07T06:14:55.523Z,100789.09
2022-10-07T06:18:59.755Z,100777.97
2022-10-07T06:23:04.215Z,100777.97
2022-10-07T06:27:07.627Z,100782.00
2022-10-07T06:31:14.567Z,100782.63
2022-10-07T06:35:18.833Z,100777.38
2022-10-07T06:39:21.994Z,100785.72
2022-10-07T06:43:25.910Z,100781.50
2022-10-07T06:47:39.360Z,100786.94
2022-10-07T06:51:43.101Z,100781.88
2022-10-07T06:55:46.088Z,100777.28
2022-10-07T06:59:49.230Z,100779.34
2022-10-07T07:03:54.957Z,100782.91
2022-10-07T07:07:58.737Z,100775.97
2022-10-07T07:12:01.452Z,100778.41
2022-10-07T07:16:11.015Z,100780.28
2022-10-07T07:20:15.787Z,100780.66
2022-10-07T07:24:18.477Z,100779.50
2022-10-07T07:28:23.146Z,100783.72
2022-10-07T07:32:26.059Z,100774.63
2022-10-07T07:36:31.673Z,100777.91
2022-10-07T07:40:37.530Z,100773.53
2022-10-07T07:44:40.482Z,100772.72
2022-10-07T07:48:49.570Z,100772.47
2022-10-07T07:52:57.212Z,100763.72
2022-10-07T07:57:00.485Z,100754.56
2022-10-07T08:01:08.512Z,100753.88
2022-10-07T08:05:11.871Z,100754.97
2022-10-07T08:09:15.928Z,100751.59
2022-10-07T08:13:21.007Z,100746.38
2022-10-07T08:17:24.546Z,100739.31
2022-10-07T08:21:32.807Z,100734.47
2022-10-07T08:25:37.765Z,100720.22
2022-10-07T08:29:42.466Z,100710.25
2022-10-07T08:33:48.941Z,100713.47
2022-10-07T08:37:51.870Z,100713.34
2022-10-07T08:42:03.460Z,100696.97
2022-10-07T08:46:06.744Z,100700.06
2022-10-07T08:50:19.457Z,100693.44
2022-10-07T08:54:28.355Z,100685.94
2022-10-07T08:58:44.083Z,100686.72
2022-10-07T09:03:07.350Z,100683.75
2022-10-07T09:07:14.078Z,100677.25
2022-10-07T09:11:25.553Z,100670.13
2022-10-07T09:15:39.042Z,100663.00
2022-10-07T09:19:45.929Z,100663.03
2022-10-07T09:23:51.628Z,100661.94
2022-10-07T09:27:54.851Z,100655.31
2022-10-07T09:31:59.303Z,100646.19
2022-10-07T09:36:07.664Z,100643.03
2022-10-07T09:40:31.138Z,100638.28
2022-10-07T09:44:34.331Z,100635.00
2022-10-07T09:48:38.298Z,100625.91
2022-10-07T09:52:40.970Z,100616.66
2022-10-07T09:56:46.435Z,100616.31
2022-10-07T10:00:51.351Z,100618.44
2022-10-07T10:04:57.350Z,100607.06
2022-10-07T10:09:00.127Z,100612.94
2022-10-07T10:13:05.255Z,100607.88
2022-10-07T10:17:22.027Z,100603.22
2022-10-07T10:21:32.455Z,100597.63
2022-10-07T10:26:03.659Z,100582.63
2022-10-07T10:30:10.560Z,100579.97
2022-10-07T10:34:30.659Z,100568.28
2022-10-07T10:38:44.588Z,100557.19
2022-10-07T10:42:54.423Z,100559.56
2022-10-07T10:47:04.365Z,100548.59
2022-10-07T10:51:25.477Z,100540.97
2022-10-07T10:56:08.372Z,100534.78
2022-10-07T11:00:13.745Z,100533.06
2022-10-07T11:04:27.839Z,100508.19
2022-10-07T11:08:38.063Z,100502.69
2022-10-07T11:12:47.736Z,100490.53
2022-10-07T11:16:54.229Z,100488.69
2022-10-07T11:20:59.302Z,100476.88
2022-10-07T11:25:18.775Z,100473.47
2022-10-07T11:29:32.242Z,100460.19
2022-10-07T11:33:40.029Z,100453.78
2022-10-07T11:37:48.567Z,100432.09
2022-10-07T11:41:58.217Z,100434.34
2022-10-07T11:46:11.296Z,100428.38
2022-10-07T11:50:19.048Z,100411.63
2022-10-07T11:54:24.351Z,100407.50
2022-10-07T11:58:31.827Z,100405.59
2022-10-07T12:02:43.957Z,100390.28
2022-10-07T12:07:20.367Z,100386.78
2022-10-07T12:11:40.918Z,100375.38
2022-10-07T12:15:44.787Z,100365.94
2022-10-07T12:20:26.430Z,100366.53
2022-10-07T12:24:32.147Z,100360.31
2022-10-07T12:28:36.590Z,100352.03
2022-10-07T12:32:57.308Z,100344.88
2022-10-07T12:37:37.469Z,100344.56
2022-10-07T12:41:46.304Z,100335.44
2022-10-07T12:45:54.405Z,100324.88
2022-10-07T12:50:01.336Z,100321.56
2022-10-07T12:54:07.049Z,100310.88
2022-10-07T12:59:01.359Z,100308.53
2022-10-07T13:03:36.088Z,100308.94
2022-10-07T13:08:16.974Z,100297.19
2022-10-07T13:12:35.925Z,100286.91
2022-10-07T13:16:48.927Z,100287.44
2022-10-07T13:21:12.626Z,100278.41
2022-10-07T13:25:18.529Z,100269.69
2022-10-07T13:29:24.948Z,100265.09
2022-10-07T13:33:31.382Z,100265.25
2022-10-07T13:37:36.054Z,100249.03
2022-10-07T13:41:40.528Z,100248.38
2022-10-07T13:45:45.680Z,100237.91
2022-10-07T13:49:52.793Z,100227.19
2022-10-07T13:53:58.106Z,100217.84
2022-10-07T13:58:04.403Z,100211.16
2022-10-07T14:02:15.344Z,100204.19
2022-10-07T14:06:38.000Z,100204.13
2022-10-07T14:10:51.346Z,100193.06
2022-10-07T14:14:55.778Z,100197.06
2022-10-07T14:18:58.616Z,100184.81
2022-10-07T14:23:05.788Z,100184.16
2022-10-07T14:27:52.407Z,100177.16
2022-10-07T14:32:27.071Z,100168.91
2022-10-07T14:36:30.094Z,100159.53
2022-10-07T14:40:34.054Z,100158.22
2022-10-07T14:44:36.971Z,100157.72
2022-10-07T14:48:40.007Z,100150.03
2022-10-07T14:52:47.003Z,100144.72
2022-10-07T14:56:51.314Z,100148.78
2022-10-07T15:00:53.921Z,100142.25
2022-10-07T15:04:56.652Z,100131.22
2022-10-07T15:08:59.456Z,100135.03
2022-10-07T15:13:08.667Z,100121.13
2022-10-07T15:17:15.235Z,100125.84
2022-10-07T15:21:17.883Z,100129.06
2022-10-07T15:25:21.438Z,100127.66
2022-10-07T15:29:25.373Z,100117.13
2022-10-07T15:33:27.975Z,100114.22
2022-10-07T15:37:32.264Z,100111.81
2022-10-07T15:41:37.021Z,100106.41
2022-10-07T15:45:45.539Z,100103.66
2022-10-07T15:49:48.962Z,100096.47
2022-10-07T15:53:51.847Z,100091.31
2022-10-07T15:57:54.474Z,100080.56
2022-10-07T16:01:58.521Z,100081.56
2022-10-07T16:06:03.098Z,100081.63
2022-10-07T16:10:09.574Z,100085.84
2022-10-07T16:14:15.717Z,100079.91
2022-10-07T16:18:19.656Z,100081.00
2022-10-07T16:22:22.248Z,100081.69
2022-10-07T16:26:29.319Z,100075.41
2022-10-07T16:30:43.908Z,100071.59
2022-10-07T16:34:48.272Z,100068.47
2022-10-07T16:38:52.062Z,100067.53
2022-10-07T16:42:54.627Z,100073.13
2022-10-07T16:46:58.016Z,100070.88
2022-10-07T16:51:01.939Z,100069.47
2022-10-07T16:55:04.734Z,100081.06
2022-10-07T16:59:09.728Z,100079.09
2022-10-07T17:03:12.350Z,100073.19
2022-10-07T17:07:16.231Z,100070.53
2022-10-07T17:11:29.907Z,100073.53
2022-10-07T17:15:32.485Z,100077.28
2022-10-07T17:19:36.407Z,100066.22
2022-10-07T17:23:40.308Z,100069.47
2022-10-07T17:27:42.856Z,100074.53
2022-10-07T17:31:48.244Z,100069.97
2022-10-07T17:35:50.876Z,100068.56
2022-10-07T17:39:54.818Z,100063.72
2022-10-07T17:43:58.975Z,100060.28
2022-10-07T17:48:01.611Z,100065.50
2022-10-07T17:52:04.163Z,100062.53
2022-10-07T17:56:09.970Z,100068.41
2022-10-07T18:00:13.443Z,100066.63
2022-10-07T18:04:23.739Z,100069.34
2022-10-07T18:08:27.559Z,100056.59
2022-10-07T18:12:49.182Z,100051.91
2022-10-07T18:16:51.749Z,100052.22
2022-10-07T18:20:54.361Z,100056.75
2022-10-07T18:24:58.393Z,100059.16
2022-10-07T18:29:02.286Z,100052.00
2022-10-07T18:33:04.897Z,100041.53
2022-10-07T18:37:07.510Z,100042.06
2022-10-07T18:41:11.512Z,100041.31
2022-10-07T18:45:15.644Z,100043.56
2022-10-07T18:49:18.404Z,100038.66
2022-10-07T18:53:20.994Z,100047.16
2022-10-07T18:57:23.667Z,100048.53
2022-10-07T19:01:30.111Z,100047.16
2022-10-07T19:05:36.995Z,100044.16
2022-10-07T19:09:39.617Z,100043.59
2022-10-07T19:13:51.929Z,100035.31
2022-10-07T19:17:56.412Z,100038.63
2022-10-07T19:21:59.527Z,100043.22
2022-10-07T19:26:02.318Z,100042.13
2022-10-07T19:30:05.545Z,100034.69
2022-10-07T19:34:11.112Z,100027.50
2022-10-07T19:38:14.474Z,100029.84
2022-10-07T19:42:18.171Z,100031.84
2022-10-07T19:46:23.199Z,100026.78
2022-10-07T19:50:27.127Z,100022.66
2022-10-07T19:54:35.621Z,100023.31
2022-10-07T19:58:38.878Z,100017.34
2022-10-07T20:02:41.572Z,100017.34
2022-10-07T20:06:45.863Z,100014.56
2022-10-07T20:10:48.450Z,100017.75
2022-10-07T20:14:51.183Z,100026.00
2022-10-07T20:19:00.506Z,100024.38
2022-10-07T20:23:04.497Z,100022.13
2022-10-07T20:27:07.053Z,100012.44
2022-10-07T20:31:12.659Z,100009.16
2022-10-07T20:35:15.325Z,100008.22
2022-10-07T20:39:38.616Z,100005.69
2022-10-07T20:43:41.167Z,100013.13
2022-10-07T20:47:44.343Z,100005.91
2022-10-07T20:51:47.410Z,99996.19
2022-10-07T20:55:51.342Z,100009.94
2022-10-07T20:59:54.211Z,100001.69
